Overview Statistics Trail Chart Weather Telemetry Raw packets
 

This is the latest recevied weather packets stored in our database for station/object EA4BHK-10. If no packets are shown the sender has not sent any weather packets the latest 10 day(s).

<< 34 35 36 37 38 39 >>
Time Temp. Humidity Pressure Rain* Wind** Luminosity Snow
1787771246 23.89° C 19% 1010.4 hPa - - - -
1787770346 24.44° C 19% 1010.2 hPa - - - -
1787769446 24.44° C 18% 1010 hPa - - - -
1787768546 25.56° C 17% 1009.7 hPa - - - -
1787767646 26.11° C 16% 1009.3 hPa - - - -
1787766746 26.11° C 15% 1009.2 hPa - - - -
1787765846 26.67° C 15% 1009.1 hPa - - - -
1787764946 26.67° C 14% 1009.1 hPa - - - -
1787764046 26.67° C 14% 1009 hPa - - - -
1787763146 27.22° C 15% 1008.8 hPa - - - -
1787762246 27.22° C 17% 1008.5 hPa - - - -
1787761346 27.78° C 17% 1008.5 hPa - - - -
1787760446 27.78° C 18% 1008.4 hPa - - - -
1787759546 28.33° C 18% 1008.3 hPa - - - -
1787758646 28.33° C 18% 1008.1 hPa - - - -
1787757746 28.89° C 18% 1008.3 hPa - - - -
1787756846 28.89° C 19% 1008 hPa - - - -
1787755946 28.89° C 18% 1008.2 hPa - - - -
1787754276 29.44° C 20% 1008.3 hPa - - - -
1787752475 28.89° C 20% 1008.7 hPa - - - -
1787750675 28.89° C 20% 1009 hPa - - - -
1787748874 28.89° C 21% 1009.2 hPa - - - -
1787747957 28.33° C 21% 1009.6 hPa - - - -
1787747054 28.33° C 21% 1009.7 hPa - - - -
1787746150 27.78° C 20% 1009.9 hPa - - - -

* Rain since midnight (hover to see other rain measurements)
** Current wind speed in m/s (hover to see current wind gust speed)